createdAt,value
2024-05-09T01:11:04.063Z,4.63
2024-05-09T02:20:44.524Z,4.95
2024-05-09T02:51:11.740Z,4.95
2024-05-09T02:55:34.476Z,4.75
2024-05-09T03:41:54.897Z,4.72
2024-05-09T03:45:26.160Z,5.25
2024-05-09T04:22:43.496Z,3.97
2024-05-09T04:25:10.810Z,4.53
2024-05-09T04:27:38.099Z,5.07
2024-05-09T04:30:08.010Z,4.20
2024-05-09T04:32:40.339Z,5.10
2024-05-09T04:35:07.743Z,7.97
2024-05-09T04:37:35.059Z,9.65
2024-05-09T04:40:03.133Z,11.02
2024-05-09T04:42:32.098Z,11.77
2024-05-09T04:45:19.365Z,9.85
2024-05-09T04:47:46.994Z,8.00
2024-05-09T04:50:20.858Z,5.75
2024-05-09T04:53:03.211Z,5.68
2024-05-09T04:55:30.642Z,4.95
2024-05-09T04:57:58.026Z,4.20
2024-05-09T05:00:34.447Z,4.50
2024-05-09T05:03:07.317Z,4.40
2024-05-09T05:05:40.838Z,4.38
2024-05-09T05:08:18.971Z,4.30
2024-05-09T05:10:53.114Z,4.13
2024-05-09T05:13:24.052Z,3.65
2024-05-09T05:15:55.246Z,3.70
2024-05-09T05:18:23.436Z,3.85
2024-05-09T05:20:57.306Z,4.57
2024-05-09T05:23:25.214Z,4.20
2024-05-09T05:25:56.591Z,4.38
2024-05-09T05:28:25.247Z,4.13
2024-05-09T05:30:52.627Z,4.22
2024-05-09T05:33:22.524Z,3.83
2024-05-09T05:35:50.563Z,3.70
2024-05-09T05:41:10.713Z,4.30
2024-05-09T05:43:37.995Z,4.07
2024-05-09T05:46:08.736Z,3.90
2024-05-09T05:48:37.445Z,4.40
2024-05-09T05:51:05.894Z,4.65
2024-05-09T05:53:34.656Z,4.15
2024-05-09T05:56:05.290Z,3.70
2024-05-09T06:01:02.777Z,4.18
2024-05-09T06:03:31.537Z,3.40
2024-05-09T06:06:03.004Z,3.92
2024-05-09T06:08:31.494Z,4.43
2024-05-09T06:11:05.384Z,3.75
2024-05-09T06:13:35.056Z,3.80
2024-05-09T06:16:05.605Z,3.88
2024-05-09T06:18:35.628Z,3.60
2024-05-09T06:21:03.323Z,3.80
2024-05-09T06:23:30.686Z,3.70
2024-05-09T06:25:58.149Z,3.28
2024-05-09T06:28:25.442Z,3.63
2024-05-09T06:30:52.849Z,3.92
2024-05-09T06:33:20.390Z,3.50
2024-05-09T06:35:47.884Z,3.40
2024-05-09T06:38:25.160Z,3.50
2024-05-09T06:40:52.555Z,3.70
2024-05-09T06:43:20.177Z,3.90
2024-05-09T06:45:48.605Z,3.35
2024-05-09T06:48:18.195Z,3.10
2024-05-09T06:50:47.551Z,3.45
2024-05-09T06:53:15.355Z,2.80
2024-05-09T06:55:42.744Z,3.33
2024-05-09T06:58:10.214Z,2.95
2024-05-09T07:00:41.649Z,2.80
2024-05-09T07:03:11.132Z,3.03
2024-05-09T07:05:39.591Z,3.47
2024-05-09T07:08:07.481Z,2.55
2024-05-09T07:10:36.490Z,2.85
2024-05-09T07:13:08.490Z,3.20
2024-05-09T07:15:35.803Z,2.75
2024-05-09T07:18:08.649Z,3.38
2024-05-09T07:20:36.080Z,2.80
2024-05-09T07:23:04.469Z,2.60
2024-05-09T07:25:31.999Z,3.17
2024-05-09T07:27:59.311Z,2.90
2024-05-09T07:30:33.086Z,3.05
2024-05-09T07:33:02.911Z,2.90
2024-05-09T07:35:32.719Z,2.60
2024-05-09T07:38:00.310Z,3.15
2024-05-09T07:40:36.779Z,3.08
2024-05-09T07:43:07.603Z,2.90
2024-05-09T07:52:32.661Z,3.13
2024-05-09T07:55:56.033Z,2.75
2024-05-09T07:58:27.621Z,3.20
2024-05-09T08:00:55.409Z,3.08
2024-05-09T08:03:23.597Z,3.20
2024-05-09T08:05:57.368Z,3.20
2024-05-09T08:08:24.642Z,3.15
2024-05-09T08:10:52.060Z,2.72
2024-05-09T08:13:19.458Z,3.22
2024-05-09T08:15:46.891Z,3.53
2024-05-09T08:18:14.338Z,3.50
2024-05-09T08:20:42.762Z,3.15
2024-05-09T08:23:11.624Z,3.05
2024-05-09T08:25:38.972Z,3.60
2024-05-09T08:28:06.480Z,3.65
2024-05-09T08:30:37.169Z,3.63
2024-05-09T08:33:06.936Z,3.60
2024-05-09T08:35:35.239Z,3.33
2024-05-09T08:38:03.564Z,3.30
2024-05-09T08:40:36.323Z,4.03
2024-05-09T08:43:10.464Z,4.05
2024-05-09T08:45:43.630Z,3.70
2024-05-09T08:48:13.181Z,3.40
2024-05-09T08:50:41.647Z,3.78
2024-05-09T08:53:09.524Z,3.35
2024-05-09T08:55:40.061Z,3.55
2024-05-09T08:58:11.282Z,3.67
2024-05-09T09:00:39.427Z,3.60
2024-05-09T09:03:10.825Z,4.03
2024-05-09T09:05:41.351Z,3.17
2024-05-09T09:08:10.391Z,3.53
2024-05-09T09:45:49.440Z,3.58
2024-05-09T09:48:17.474Z,3.70
2024-05-09T09:53:29.443Z,3.03
2024-05-09T09:55:56.844Z,3.20
2024-05-09T09:58:25.789Z,3.47
2024-05-09T10:00:56.529Z,3.00
2024-05-09T10:03:24.169Z,3.63
2024-05-09T10:05:56.148Z,3.45
2024-05-09T10:08:24.034Z,3.20
2024-05-09T10:10:51.517Z,3.50
2024-05-09T10:13:21.288Z,3.72
2024-05-09T10:15:58.072Z,2.95
2024-05-09T10:18:28.597Z,3.63
2024-05-09T10:20:58.126Z,3.20
2024-05-09T10:23:31.512Z,3.08
2024-05-09T10:26:03.355Z,3.15
2024-05-09T10:28:35.347Z,2.80
2024-05-09T10:31:10.523Z,2.92
2024-05-09T10:33:38.897Z,3.50
2024-05-09T10:36:13.307Z,3.10
2024-05-09T10:38:41.150Z,3.70
2024-05-09T10:41:11.132Z,3.45
2024-05-09T10:43:41.983Z,3.30
2024-05-09T10:46:10.171Z,3.25
2024-05-09T10:48:38.320Z,3.40
2024-05-09T10:51:05.965Z,3.35
2024-05-09T10:53:43.078Z,3.03
2024-05-09T10:56:11.645Z,2.72
2024-05-09T10:58:38.909Z,3.10
2024-05-09T11:01:07.502Z,3.53
2024-05-09T11:03:36.112Z,3.20
2024-05-09T11:06:03.764Z,2.90
2024-05-09T11:08:32.734Z,3.13
2024-05-09T11:11:00.537Z,3.07
2024-05-09T11:13:31.534Z,3.13
2024-05-09T11:16:00.132Z,3.47
2024-05-09T11:18:30.410Z,3.53
2024-05-09T11:21:00.582Z,3.15
2024-05-09T11:23:30.501Z,3.40
2024-05-09T11:28:28.297Z,3.03
2024-05-09T11:31:05.518Z,2.80
2024-05-09T11:33:33.052Z,3.67
2024-05-09T11:36:00.425Z,2.92
2024-05-09T11:38:29.034Z,3.22
2024-05-09T11:40:57.547Z,3.70
2024-05-09T11:43:24.925Z,3.28
2024-05-09T11:45:52.503Z,3.65
2024-05-09T11:48:20.187Z,3.38
2024-05-09T11:50:47.568Z,3.70
2024-05-09T11:53:15.903Z,2.85
2024-05-09T11:55:43.155Z,3.70
2024-05-09T11:58:12.363Z,3.22
2024-05-09T12:00:39.954Z,3.33
2024-05-09T12:03:07.395Z,2.90
2024-05-09T12:05:34.942Z,3.35
2024-05-09T12:08:02.673Z,3.08
2024-05-09T12:10:33.527Z,3.20
2024-05-09T12:13:04.910Z,3.05
2024-05-09T12:15:36.245Z,3.30
2024-05-09T12:18:04.800Z,2.92
2024-05-09T12:20:37.552Z,3.15
2024-05-09T12:23:07.418Z,3.45
2024-05-09T12:25:35.341Z,3.22
2024-05-09T12:28:02.782Z,2.97
2024-05-09T12:30:36.599Z,3.10
2024-05-09T12:33:08.910Z,3.20
2024-05-09T12:35:36.686Z,2.72
2024-05-09T12:38:04.354Z,2.70
2024-05-09T12:40:36.604Z,2.42
2024-05-09T12:43:07.912Z,3.42
2024-05-09T12:45:36.322Z,2.35
2024-05-09T12:48:07.003Z,3.17
2024-05-09T12:50:35.049Z,3.20
2024-05-09T12:53:03.914Z,2.92
2024-05-09T12:55:40.263Z,2.87
2024-05-09T12:58:15.688Z,2.90
2024-05-09T13:00:43.242Z,3.05
2024-05-09T13:03:10.770Z,2.90
2024-05-09T13:05:38.352Z,2.60
2024-05-09T13:08:05.874Z,2.65
2024-05-09T13:10:33.724Z,3.05
2024-05-09T13:13:02.044Z,2.90
2024-05-09T13:15:31.277Z,2.60
2024-05-09T13:18:03.056Z,2.43
2024-05-09T13:20:34.073Z,2.55
2024-05-09T13:23:07.581Z,2.53
2024-05-09T13:25:35.835Z,2.88
2024-05-09T13:28:04.129Z,2.35
2024-05-09T13:30:39.208Z,2.72
2024-05-09T13:33:10.345Z,2.58
2024-05-09T13:35:38.589Z,2.22
2024-05-09T13:38:06.156Z,2.15
2024-05-09T13:40:36.048Z,2.42
2024-05-09T13:43:05.001Z,2.80
2024-05-09T13:45:32.946Z,2.80
2024-05-09T13:48:02.373Z,2.50
2024-05-09T13:50:36.014Z,2.72
2024-05-09T13:53:08.568Z,2.75
2024-05-09T13:55:39.812Z,2.50
2024-05-09T13:58:07.540Z,2.80
2024-05-09T14:00:46.650Z,2.30
2024-05-09T14:03:18.210Z,1.90
2024-05-09T14:05:47.713Z,2.00
2024-05-09T14:08:17.814Z,2.80
2024-05-09T14:10:47.170Z,2.60
2024-05-09T14:13:15.042Z,2.53
2024-05-09T14:15:42.539Z,2.15
2024-05-09T14:18:13.310Z,2.60
2024-05-09T14:20:41.815Z,2.05
2024-05-09T14:23:09.310Z,2.63
2024-05-09T14:25:41.976Z,2.00
2024-05-09T14:28:10.924Z,2.45
2024-05-09T14:30:39.201Z,2.78
2024-05-09T14:33:09.803Z,2.13
2024-05-09T14:35:40.071Z,2.22
2024-05-09T14:40:40.903Z,2.55
2024-05-09T14:43:14.746Z,2.42
2024-05-09T14:45:43.478Z,2.40
2024-05-09T14:48:11.685Z,2.63
2024-05-09T14:50:40.604Z,2.10
2024-05-09T14:53:13.727Z,2.23
2024-05-09T14:55:45.513Z,2.22
2024-05-09T14:58:16.756Z,4.00
2024-05-09T15:00:50.195Z,2.92
2024-05-09T15:03:19.970Z,2.40
2024-05-09T15:05:48.334Z,2.50
2024-05-09T15:08:17.412Z,2.25
2024-05-09T15:10:46.575Z,2.17
2024-05-09T15:13:16.470Z,2.72
2024-05-09T15:15:45.856Z,2.10
2024-05-09T15:18:14.185Z,2.00
2024-05-09T15:20:42.345Z,2.50
2024-05-09T15:23:09.867Z,1.90
2024-05-09T15:25:37.318Z,2.03
2024-05-09T15:28:07.337Z,2.03
2024-05-09T15:30:35.313Z,2.35
2024-05-09T15:33:07.229Z,2.20
2024-05-09T15:35:35.548Z,2.10
2024-05-09T15:38:04.029Z,2.40
2024-05-09T15:40:38.724Z,2.17
2024-05-09T15:43:09.314Z,2.42
2024-05-09T15:48:06.253Z,2.45
2024-05-09T15:50:38.840Z,2.67
2024-05-09T15:53:09.788Z,2.13
2024-05-09T15:55:37.790Z,1.90
2024-05-09T15:58:05.884Z,2.10
2024-05-09T16:00:38.586Z,2.60
2024-05-09T16:03:13.589Z,2.50
2024-05-09T16:05:42.261Z,2.35
2024-05-09T16:08:10.105Z,2.17
2024-05-09T16:10:43.428Z,2.22
2024-05-09T16:13:12.201Z,2.08
2024-05-09T16:15:39.729Z,2.20
2024-05-09T16:18:07.408Z,2.30
2024-05-09T16:20:39.916Z,2.13
2024-05-09T16:23:09.982Z,2.63
2024-05-09T16:25:37.948Z,2.47
2024-05-09T16:28:12.595Z,2.83
2024-05-09T16:30:40.449Z,2.65
2024-05-09T16:33:08.585Z,2.80
2024-05-09T16:35:38.316Z,2.50
2024-05-09T16:38:06.121Z,2.28
2024-05-09T16:40:40.416Z,2.13
2024-05-09T16:43:09.796Z,2.42
2024-05-09T16:45:39.682Z,2.70
2024-05-09T16:48:10.499Z,1.95
2024-05-09T16:50:39.057Z,2.17
2024-05-09T16:53:07.548Z,2.03
2024-05-09T16:55:35.844Z,2.47
2024-05-09T17:00:55.377Z,1.80
2024-05-09T17:03:23.688Z,2.40
2024-05-09T17:05:51.151Z,2.08
2024-05-09T17:08:19.710Z,2.20
2024-05-09T17:10:49.349Z,1.80
2024-05-09T17:15:45.613Z,2.45
2024-05-09T17:18:12.977Z,2.60
2024-05-09T17:20:40.271Z,2.80
2024-05-09T17:23:13.945Z,2.80
2024-05-09T17:25:44.106Z,2.97
2024-05-09T17:28:12.022Z,2.70
2024-05-09T17:30:41.628Z,2.40
2024-05-09T17:33:11.417Z,3.00
2024-05-09T17:35:39.781Z,2.38
2024-05-09T17:40:58.278Z,2.70
2024-05-09T17:43:25.800Z,2.83
2024-05-09T17:45:54.593Z,2.33
2024-05-09T17:48:21.992Z,1.88
2024-05-09T17:50:51.416Z,3.15
2024-05-09T17:53:20.447Z,3.35
2024-05-09T17:55:48.835Z,3.38
2024-05-09T17:58:16.203Z,3.22
2024-05-09T18:00:43.703Z,4.05
2024-05-09T18:03:12.506Z,3.50
2024-05-09T18:05:41.009Z,3.40
2024-05-09T18:08:15.148Z,3.65
2024-05-09T18:10:43.031Z,3.38
2024-05-09T18:13:11.996Z,2.97
2024-05-09T18:15:39.925Z,3.25
2024-05-09T18:18:10.645Z,3.28
2024-05-09T18:20:43.823Z,2.92
2024-05-09T18:23:14.660Z,3.20
2024-05-09T18:25:43.247Z,3.05
2024-05-09T18:28:10.719Z,3.22
2024-05-09T18:30:39.176Z,3.13
2024-05-09T18:33:08.177Z,4.00
2024-05-09T18:35:37.258Z,3.50
2024-05-09T18:38:05.492Z,3.38
2024-05-09T18:40:36.383Z,4.30
2024-05-09T18:43:09.177Z,3.58
2024-05-09T18:45:40.214Z,3.50
2024-05-09T18:48:09.711Z,4.90
2024-05-09T18:50:41.344Z,4.72
2024-05-09T18:53:11.053Z,4.25
2024-05-09T18:55:39.404Z,4.05
2024-05-09T18:58:09.378Z,4.18
2024-05-09T19:00:39.622Z,4.15
2024-05-09T19:03:11.736Z,4.50
2024-05-09T19:05:41.664Z,4.93
2024-05-09T19:08:09.974Z,5.15
2024-05-09T19:10:37.914Z,5.32
2024-05-09T19:13:09.392Z,6.22
2024-05-09T19:15:40.393Z,6.10
2024-05-09T19:18:08.474Z,8.15
2024-05-09T19:20:37.034Z,7.20
2024-05-09T19:23:05.882Z,6.57
2024-05-09T19:25:34.427Z,7.40
2024-05-09T19:28:01.966Z,6.75
2024-05-09T19:30:37.772Z,6.60
2024-05-09T19:33:09.444Z,6.70
2024-05-09T19:35:37.552Z,7.22
2024-05-09T19:38:05.357Z,7.07
2024-05-09T19:40:34.505Z,7.25
2024-05-09T19:43:03.483Z,7.35
2024-05-09T19:45:33.256Z,7.10
2024-05-09T19:48:01.342Z,7.13
2024-05-09T19:50:37.179Z,8.82
2024-05-09T19:53:10.598Z,9.32
2024-05-09T19:55:38.473Z,9.63
2024-05-09T19:58:07.262Z,10.35
2024-05-09T20:00:37.656Z,10.77
2024-05-09T20:03:07.614Z,9.95
2024-05-09T20:05:35.647Z,8.52
2024-05-09T20:08:03.353Z,7.78
2024-05-09T20:10:33.307Z,7.30
2024-05-09T20:13:03.270Z,8.02
2024-05-09T20:15:31.869Z,6.65
2024-05-09T20:17:59.323Z,6.82
2024-05-09T20:20:35.516Z,6.47
2024-05-09T20:23:06.921Z,6.85
2024-05-09T20:25:34.268Z,5.78
2024-05-09T20:28:01.783Z,6.38
2024-05-09T20:30:32.708Z,6.00
2024-05-09T20:33:03.616Z,5.38
2024-05-09T20:35:32.436Z,5.28
2024-05-09T20:38:04.278Z,5.22
2024-05-09T20:40:36.100Z,5.60
2024-05-09T20:43:07.068Z,5.03
2024-05-09T20:45:36.528Z,5.40
2024-05-09T20:48:04.192Z,5.13
2024-05-09T20:50:39.073Z,5.85
2024-05-09T20:53:13.517Z,6.15
2024-05-09T20:55:41.930Z,5.20
2024-05-09T20:58:09.807Z,5.60
2024-05-09T21:00:40.941Z,5.85
2024-05-09T21:03:12.741Z,5.53
2024-05-09T21:05:41.060Z,6.00
2024-05-09T21:08:10.983Z,5.53
2024-05-09T21:10:38.493Z,6.68
2024-05-09T21:13:07.064Z,5.63
2024-05-09T21:15:35.632Z,6.10
2024-05-09T21:20:54.799Z,6.70
2024-05-09T21:23:22.213Z,7.47
2024-05-09T21:25:49.660Z,6.50
2024-05-09T21:28:21.247Z,7.03
2024-05-09T21:30:49.655Z,6.72
2024-05-09T21:33:17.963Z,7.10
2024-05-09T21:35:45.513Z,7.53
2024-05-09T21:38:14.636Z,7.75
2024-05-09T21:40:42.949Z,6.15
2024-05-09T21:43:10.508Z,5.38
2024-05-09T21:45:38.020Z,6.80
2024-05-09T21:48:06.259Z,6.35
2024-05-09T21:50:39.813Z,7.00
2024-05-09T21:53:09.257Z,6.60
2024-05-09T21:55:36.557Z,7.97
2024-05-09T21:58:04.182Z,10.65
2024-05-09T22:01:09.288Z,10.93
2024-05-09T22:03:36.719Z,11.45
2024-05-09T22:06:04.086Z,10.30
2024-05-09T22:08:31.330Z,9.25
2024-05-09T22:10:59.599Z,9.35
2024-05-09T22:13:28.616Z,8.95
2024-05-09T22:15:55.992Z,8.35
2024-05-09T22:18:23.280Z,9.32
2024-05-09T22:20:55.387Z,10.27
2024-05-09T22:23:22.688Z,11.48
2024-05-09T22:25:50.057Z,13.23
2024-05-09T22:28:18.144Z,14.00
2024-05-09T22:30:47.169Z,16.05
2024-05-09T22:33:16.146Z,14.67
2024-05-09T22:35:45.390Z,15.00
2024-05-09T22:38:12.913Z,14.25
2024-05-09T22:40:47.364Z,13.60
2024-05-09T22:43:21.724Z,12.90
2024-05-09T22:45:51.447Z,11.70
2024-05-09T22:48:20.381Z,11.52
2024-05-09T22:50:47.914Z,11.40
2024-05-09T22:53:15.336Z,10.18
2024-05-09T22:55:42.928Z,9.30
2024-05-09T22:58:10.340Z,10.48
2024-05-09T23:00:38.004Z,9.25
2024-05-09T23:03:05.586Z,9.50
2024-05-09T23:05:34.233Z,10.75
2024-05-09T23:08:02.635Z,10.55
2024-05-09T23:10:35.813Z,11.00
2024-05-09T23:13:05.181Z,9.95
2024-05-09T23:15:32.672Z,9.88
2024-05-09T23:18:00.167Z,8.98
2024-05-09T23:20:35.366Z,10.18
2024-05-09T23:23:05.931Z,11.90
2024-05-09T23:25:33.350Z,14.38
2024-05-09T23:28:00.885Z,12.25
2024-05-09T23:30:37.512Z,14.27
2024-05-09T23:33:08.364Z,14.50
2024-05-09T23:35:36.123Z,14.32
2024-05-09T23:38:06.072Z,14.00
2024-05-09T23:40:39.410Z,14.35
2024-05-09T23:43:09.308Z,14.20
2024-05-09T23:45:37.173Z,15.57
2024-05-09T23:48:04.973Z,14.32
2024-05-09T23:50:36.188Z,14.40
2024-05-09T23:53:09.630Z,15.15
2024-05-09T23:55:38.036Z,13.32
2024-05-09T23:58:05.730Z,14.23
